Home > Products > Valid Products > TAF

000
FTUS45 KGJT 201738
TAFGJT
TAF
KGJT 201738Z 2018/2118 13005KT P6SM SCT080 BKN120
     FM202100 27005KT P6SM SCT030 OVC060
     FM210400 07004KT P6SM VCSH OVC090
     FM211200 11005KT P6SM VCSH SCT050 BKN100
     FM211700 14004KT P6SM VCSH OVC060=



000
FTUS45 KGJT 201738
TAFGJT
TAF
KGJT 201738Z 2018/2118 13005KT P6SM SCT080 BKN120
     FM202100 27005KT P6SM SCT030 OVC060
     FM210400 07004KT P6SM VCSH OVC090
     FM211200 11005KT P6SM VCSH SCT050 BKN100
     FM211700 14004KT P6SM VCSH OVC060=



000
FTUS45 KGJT 201131
TAFGJT
TAF
KGJT 201131Z 2012/2112 13005KT P6SM SCT080 BKN120
     FM202000 32004KT P6SM SCT050 BKN100
     FM210400 07004KT P6SM VCSH OVC090=



000
FTUS45 KGJT 201131
TAFGJT
TAF
KGJT 201131Z 2012/2112 13005KT P6SM SCT080 BKN120
     FM202000 32004KT P6SM SCT050 BKN100
     FM210400 07004KT P6SM VCSH OVC090=



000
FTUS45 KGJT 200537
TAFGJT
TAF
KGJT 200537Z 2006/2106 06003KT P6SM BKN050 BKN180
     FM200800 13005KT P6SM BKN050 BKN100
     FM202000 32004KT P6SM SCT050 BKN100
     FM210400 07004KT P6SM VCSH OVC090=



000
FTUS45 KGJT 200537
TAFGJT
TAF
KGJT 200537Z 2006/2106 06003KT P6SM BKN050 BKN180
     FM200800 13005KT P6SM BKN050 BKN100
     FM202000 32004KT P6SM SCT050 BKN100
     FM210400 07004KT P6SM VCSH OVC090=



000
FTUS45 KGJT 200115 AAA
TAFGJT
TAF AMD
KGJT 200115Z 2001/2024 33003KT P6SM BKN050 BKN180
     FM200200 06003KT P6SM BKN050 BKN180
     FM200800 13005KT P6SM BKN050 BKN100
     FM202000 32004KT P6SM SCT050 BKN100=



000
FTUS45 KGJT 200115 AAA
TAFGJT
TAF AMD
KGJT 200115Z 2001/2024 33003KT P6SM BKN050 BKN180
     FM200200 06003KT P6SM BKN050 BKN180
     FM200800 13005KT P6SM BKN050 BKN100
     FM202000 32004KT P6SM SCT050 BKN100=



000
FTUS45 KGJT 192322
TAFGJT
TAF
KGJT 192322Z 2000/2024 31003KT P6SM SCT080 OVC180
     FM200200 06003KT P6SM SCT080 BKN150
     FM200800 13005KT P6SM BKN050 BKN100
     FM202000 32004KT P6SM SCT050 BKN100=



000
FTUS45 KGJT 192322
TAFGJT
TAF
KGJT 192322Z 2000/2024 31003KT P6SM SCT080 OVC180
     FM200200 06003KT P6SM SCT080 BKN150
     FM200800 13005KT P6SM BKN050 BKN100
     FM202000 32004KT P6SM SCT050 BKN100=



000
FTUS45 KGJT 191725
TAFGJT
TAF
KGJT 191725Z 1918/2018 11004KT P6SM VCSH FEW014 BKN028 OVC050
     FM191900 14004KT P6SM FEW030 BKN060
     FM192200 32004KT P6SM SCT060 BKN250
     FM200200 05003KT P6SM BKN200
     FM200800 13005KT P6SM BKN120=



000
FTUS45 KGJT 191725
TAFGJT
TAF
KGJT 191725Z 1918/2018 11004KT P6SM VCSH FEW014 BKN028 OVC050
     FM191900 14004KT P6SM FEW030 BKN060
     FM192200 32004KT P6SM SCT060 BKN250
     FM200200 05003KT P6SM BKN200
     FM200800 13005KT P6SM BKN120=



000
FTUS45 KGJT 191637 AAC
TAFGJT
TAF AMD
KGJT 191637Z 1917/2012 12005KT P6SM VCSH SCT014 BKN027 OVC050
     FM191900 14004KT P6SM FEW030 BKN060
     FM192100 32004KT P6SM SCT250
     FM200200 05003KT P6SM OVC150=



000
FTUS45 KGJT 191637 AAC
TAFGJT
TAF AMD
KGJT 191637Z 1917/2012 12005KT P6SM VCSH SCT014 BKN027 OVC050
     FM191900 14004KT P6SM FEW030 BKN060
     FM192100 32004KT P6SM SCT250
     FM200200 05003KT P6SM OVC150=



000
FTUS45 KGJT 191449 AAB
TAFGJT
TAF AMD
KGJT 191449Z 1915/2012 00000KT P6SM -SN SCT027 BKN035 OVC050
      TEMPO 1915/1917 1 1/2SM -SN BR BKN030
     FM191700 14004KT P6SM FEW030 SCT050
     FM192100 32004KT P6SM SCT250
     FM200200 05003KT P6SM OVC150=



000
FTUS45 KGJT 191449 AAB
TAFGJT
TAF AMD
KGJT 191449Z 1915/2012 00000KT P6SM -SN SCT027 BKN035 OVC050
      TEMPO 1915/1917 1 1/2SM -SN BR BKN030
     FM191700 14004KT P6SM FEW030 SCT050
     FM192100 32004KT P6SM SCT250
     FM200200 05003KT P6SM OVC150=



000
FTUS45 KGJT 191427 AAC
TAFGJT
TAF AMD
KGJT 191427Z 1914/2012 00000KT P6SM -SN SCT027 BKN035 OVC050
     FM191600 14004KT P6SM FEW030 SCT050
     FM192100 32004KT P6SM SCT250
     FM200200 05003KT P6SM OVC150=



000
FTUS45 KGJT 191427 AAC
TAFGJT
TAF AMD
KGJT 191427Z 1914/2012 00000KT P6SM -SN SCT027 BKN035 OVC050
     FM191600 14004KT P6SM FEW030 SCT050
     FM192100 32004KT P6SM SCT250
     FM200200 05003KT P6SM OVC150=



000
FTUS45 KGJT 191139
TAFGJT
TAF
KGJT 191139Z 1912/2012 08004KT P6SM VCFG FEW024 OVC050
      TEMPO 1912/1915 4SM BR BKN024 OVC050
     FM191500 14004KT P6SM FEW030 SCT050
     FM192100 32004KT P6SM SCT250
     FM200200 05003KT P6SM OVC150=



000
FTUS45 KGJT 191139
TAFGJT
TAF
KGJT 191139Z 1912/2012 08004KT P6SM VCFG FEW024 OVC050
      TEMPO 1912/1915 4SM BR BKN024 OVC050
     FM191500 14004KT P6SM FEW030 SCT050
     FM192100 32004KT P6SM SCT250
     FM200200 05003KT P6SM OVC150=



000
FTUS45 KGJT 190526
TAFGJT
TAF
KGJT 190526Z 1906/2006 10004KT P6SM VCFG FEW030 BKN060
      TEMPO 1911/1913 1SM BR OVC010
     FM191500 14004KT P6SM FEW070
     FM192100 32004KT P6SM SCT250
     FM200200 05003KT P6SM OVC150=



000
FTUS45 KGJT 190526
TAFGJT
TAF
KGJT 190526Z 1906/2006 10004KT P6SM VCFG FEW030 BKN060
      TEMPO 1911/1913 1SM BR OVC010
     FM191500 14004KT P6SM FEW070
     FM192100 32004KT P6SM SCT250
     FM200200 05003KT P6SM OVC150=



000
FTUS45 KGJT 182336
TAFGJT
TAF
KGJT 182336Z 1900/1924 32004KT P6SM SCT025 BKN060
      TEMPO 1900/1902 BKN025
     FM190300 10004KT P6SM VCFG FEW030 BKN060
     FM191500 14004KT P6SM FEW070
     FM192100 32004KT P6SM SCT250=



000
FTUS45 KGJT 182336
TAFGJT
TAF
KGJT 182336Z 1900/1924 32004KT P6SM SCT025 BKN060
      TEMPO 1900/1902 BKN025
     FM190300 10004KT P6SM VCFG FEW030 BKN060
     FM191500 14004KT P6SM FEW070
     FM192100 32004KT P6SM SCT250=



000
FTUS45 KGJT 181733
TAFGJT
TAF
KGJT 181733Z 1818/1918 33006KT P6SM BKN010 BKN016 OVC023
      TEMPO 1818/1820 -SHRA BKN016 OVC030
     FM182000 34005KT P6SM BKN020 OVC040
      TEMPO 1820/1824 -SHRA BKN028 OVC040
     FM190000 33004KT P6SM SCT025 BKN050
     FM190200 02004KT P6SM FEW020 BKN050
     FM190700 10003KT 4SM BR BKN020=



000
FTUS45 KGJT 181733
TAFGJT
TAF
KGJT 181733Z 1818/1918 33006KT P6SM BKN010 BKN016 OVC023
      TEMPO 1818/1820 -SHRA BKN016 OVC030
     FM182000 34005KT P6SM BKN020 OVC040
      TEMPO 1820/1824 -SHRA BKN028 OVC040
     FM190000 33004KT P6SM SCT025 BKN050
     FM190200 02004KT P6SM FEW020 BKN050
     FM190700 10003KT 4SM BR BKN020=



000
FTUS45 KGJT 181711 AAE
TAFGJT
TAF AMD
KGJT 181711Z 1817/1912 33006KT P6SM BKN010 BKN016 OVC023
     FM181900 34003KT P6SM SCT060
     FM190200 02004KT P6SM BKN100=



000
FTUS45 KGJT 181426 AAB
TAFGJT
TAF AMD
KGJT 181426Z 1814/1912 33004KT 4SM -SN BR BKN007 OVC014
      TEMPO 1815/1817 6SM BR SCT008 OVC014
     FM181700 32003KT P6SM SCT014 BKN022
     FM181900 34003KT P6SM SCT060
     FM190200 02004KT P6SM BKN100=



000
FTUS45 KGJT 181426 AAB
TAFGJT
TAF AMD
KGJT 181426Z 1814/1912 33004KT 4SM -SN BR BKN007 OVC014
      TEMPO 1815/1817 6SM BR SCT008 OVC014
     FM181700 32003KT P6SM SCT014 BKN022
     FM181900 34003KT P6SM SCT060
     FM190200 02004KT P6SM BKN100=



000
FTUS45 KGJT 181140
TAFGJT
TAF
KGJT 181140Z 1812/1912 06004KT 3SM -SN BR BKN007 OVC025
      TEMPO 1812/1814 5SM -SN BR OVC012
     FM181400 12003KT P6SM FEW015 BKN060
     FM181900 34003KT P6SM SCT060
     FM190200 02004KT P6SM BKN100=



000
FTUS45 KGJT 181140
TAFGJT
TAF
KGJT 181140Z 1812/1912 06004KT 3SM -SN BR BKN007 OVC025
      TEMPO 1812/1814 5SM -SN BR OVC012
     FM181400 12003KT P6SM FEW015 BKN060
     FM181900 34003KT P6SM SCT060
     FM190200 02004KT P6SM BKN100=



000
FTUS45 KGJT 181101 AAC
TAFGJT
TAF AMD
KGJT 181101Z 1811/1906 06004KT 6SM -SN BR OVC011
      TEMPO 1811/1814 5SM -SN BR OVC012
     FM181400 12003KT P6SM FEW015 BKN060
     FM181900 34003KT P6SM SCT060
     FM190200 02004KT P6SM BKN100=



000
FTUS45 KGJT 181101 AAC
TAFGJT
TAF AMD
KGJT 181101Z 1811/1906 06004KT 6SM -SN BR OVC011
      TEMPO 1811/1814 5SM -SN BR OVC012
     FM181400 12003KT P6SM FEW015 BKN060
     FM181900 34003KT P6SM SCT060
     FM190200 02004KT P6SM BKN100=



000
FTUS45 KGJT 181101 AAC
TAFGJT
TAF AMD
KGJT 181101Z 1811/1906 06004KT 6SM -SN BR OVC011
      TEMPO 1811/1814 5SM -SN BR OVC012
     FM181400 12003KT P6SM FEW015 BKN060
     FM181900 34003KT P6SM SCT060
     FM190200 02004KT P6SM BKN100=



000
FTUS45 KGJT 180711 AAA
TAFGJT
TAF AMD
KGJT 180711Z 1807/1906 06004KT 6SM -RA BR OVC011
      TEMPO 1807/1810 4SM -RA BR OVC008
     FM181400 12003KT P6SM FEW015 BKN060
     FM181900 34003KT P6SM SCT060
     FM190200 02004KT P6SM BKN100=



000
FTUS45 KGJT 180711 AAA
TAFGJT
TAF AMD
KGJT 180711Z 1807/1906 06004KT 6SM -RA BR OVC011
      TEMPO 1807/1810 4SM -RA BR OVC008
     FM181400 12003KT P6SM FEW015 BKN060
     FM181900 34003KT P6SM SCT060
     FM190200 02004KT P6SM BKN100=



000
FTUS45 KGJT 180535
TAFGJT
TAF
KGJT 180535Z 1806/1906 06004KT 6SM BR BKN015 OVC060
      TEMPO 1806/1810 4SM BR OVC008
     FM181400 12003KT P6SM FEW015 BKN060
     FM181900 34003KT P6SM SCT060
     FM190200 02004KT P6SM BKN100=



000
FTUS45 KGJT 180535
TAFGJT
TAF
KGJT 180535Z 1806/1906 06004KT 6SM BR BKN015 OVC060
      TEMPO 1806/1810 4SM BR OVC008
     FM181400 12003KT P6SM FEW015 BKN060
     FM181900 34003KT P6SM SCT060
     FM190200 02004KT P6SM BKN100=



000
FTUS45 KGJT 180418 AAC
TAFGJT
TAF AMD
KGJT 180418Z 1804/1824 06004KT 6SM BR BKN015 OVC060
      TEMPO 1804/1805 5SM -RA BR FEW006 BKN012
     FM181400 12003KT P6SM FEW015 BKN060
     FM181900 34003KT P6SM SCT060=



000
FTUS45 KGJT 180418 AAC
TAFGJT
TAF AMD
KGJT 180418Z 1804/1824 06004KT 6SM BR BKN015 OVC060
      TEMPO 1804/1805 5SM -RA BR FEW006 BKN012
     FM181400 12003KT P6SM FEW015 BKN060
     FM181900 34003KT P6SM SCT060=



000
FTUS45 KGJT 172341
TAFGJT
TAF
KGJT 172341Z 1800/1824 31004KT P6SM VCSH SCT012 BKN035 OVC060
      TEMPO 1800/1803 5SM -RA BR FEW006 BKN012
     FM180300 06004KT 6SM BR BKN015 OVC060
     FM181400 12003KT P6SM FEW015 BKN060
     FM181900 34003KT P6SM SCT060=



000
FTUS45 KGJT 172341
TAFGJT
TAF
KGJT 172341Z 1800/1824 31004KT P6SM VCSH SCT012 BKN035 OVC060
      TEMPO 1800/1803 5SM -RA BR FEW006 BKN012
     FM180300 06004KT 6SM BR BKN015 OVC060
     FM181400 12003KT P6SM FEW015 BKN060
     FM181900 34003KT P6SM SCT060=



    US Dept of Commerce
    National Oceanic and Atmospheric Administration
    National Weather Service
    1325 East West Highway
    Silver Spring, MD 20910
    Page Author: NWS Internet Services Team
Disclaimer
Information Quality
Credits
Glossary
Privacy Policy
Freedom of Information Act (FOIA)
About Us
Career Opportunities